Vanderbilt, Michigan
Current Conditions -  °F | °C
As of 2:53 PM on Friday 19 Dec 2014 (Local Time) from KGLR Reporting Station
Clear Clear  
Wind Chill: 26°   Ceiling: Unl
Heat Index: 26°   Visibility: 10mi
Dew Point: 15°   Wind: 0mph
Humidity: 63%   Direction: NA
Pressure: 30.2"   Gusts: NA
Location:  45.14°N, 84.66°W
Report Text: KGLR 191953Z AUTO 00000KT 10SM CLR M03/M09 A3020 RMK AO2 SLP254 T10331094
Loading
Personal Weather Stations






























Interactive Weather Map New forecast layout! Learn more

10-Day Weather Forecast

Advertisements
Track Severe Weather on mobile